createdAt,value
2022-08-19T00:02:00.109Z,19.64
2022-08-19T00:04:32.250Z,19.65
2022-08-19T00:07:00.010Z,19.58
2022-08-19T00:09:28.586Z,19.56
2022-08-19T00:11:58.645Z,19.54
2022-08-19T00:14:26.800Z,19.59
2022-08-19T00:16:55.303Z,19.58
2022-08-19T00:19:23.619Z,19.59
2022-08-19T00:21:50.471Z,19.65
2022-08-19T00:24:17.368Z,19.60
2022-08-19T00:26:46.467Z,19.65
2022-08-19T00:29:15.554Z,19.66
2022-08-19T00:31:43.963Z,19.65
2022-08-19T00:34:12.409Z,19.67
2022-08-19T00:36:40.182Z,19.71
2022-08-19T00:39:06.721Z,19.56
2022-08-19T00:41:33.344Z,19.45
2022-08-19T00:44:14.341Z,19.50
2022-08-19T00:46:44.781Z,19.47
2022-08-19T00:49:25.837Z,19.43
2022-08-19T00:51:56.983Z,19.47
2022-08-19T00:54:28.280Z,19.52
2022-08-19T00:56:58.961Z,19.50
2022-08-19T01:00:00.298Z,19.47
2022-08-19T01:02:13.300Z,19.51
2022-08-19T01:04:39.785Z,19.42
2022-08-19T01:07:06.888Z,19.45
2022-08-19T01:09:33.440Z,19.38
2022-08-19T01:11:59.941Z,19.36
2022-08-19T01:14:26.692Z,19.21
2022-08-19T01:16:55.693Z,19.27
2022-08-19T01:19:46.089Z,19.24
2022-08-19T01:22:27.709Z,19.14
2022-08-19T01:24:57.624Z,19.18
2022-08-19T01:27:26.080Z,19.04
2022-08-19T01:29:52.738Z,19.03
2022-08-19T01:32:32.164Z,18.97
2022-08-19T01:35:02.915Z,19.01
2022-08-19T01:37:31.212Z,19.04
2022-08-19T01:39:57.947Z,18.99
2022-08-19T01:42:29.037Z,19.02
2022-08-19T01:44:57.680Z,19.09
2022-08-19T01:47:24.301Z,19.08
2022-08-19T01:49:50.801Z,19.10
2022-08-19T01:52:17.305Z,19.04
2022-08-19T01:54:43.764Z,19.07
2022-08-19T01:57:14.976Z,19.14
2022-08-19T01:59:43.840Z,19.08
2022-08-19T02:02:10.422Z,19.00
2022-08-19T02:04:38.904Z,18.93
2022-08-19T02:07:06.464Z,18.84
2022-08-19T02:09:33.709Z,18.81
2022-08-19T02:12:00.220Z,18.86
2022-08-19T02:14:26.701Z,18.96
2022-08-19T02:16:53.197Z,19.03
2022-08-19T02:19:19.717Z,19.01
2022-08-19T02:21:46.376Z,18.85
2022-08-19T02:24:13.277Z,18.89
2022-08-19T02:26:40.497Z,18.88
2022-08-19T02:29:08.543Z,18.89
2022-08-19T02:31:35.137Z,18.91
2022-08-19T02:34:01.721Z,18.90
2022-08-19T02:36:28.750Z,18.90
2022-08-19T02:38:57.049Z,18.95
2022-08-19T02:41:27.838Z,18.99
2022-08-19T02:44:28.577Z,19.04
2022-08-19T02:46:42.816Z,18.88
2022-08-19T02:49:09.389Z,18.89
2022-08-19T02:51:40.330Z,18.83
2022-08-19T02:54:08.597Z,18.68
2022-08-19T02:56:36.888Z,18.73
2022-08-19T02:59:08.526Z,18.76
2022-08-19T03:01:36.971Z,18.73
2022-08-19T03:04:06.321Z,18.75
2022-08-19T03:06:33.385Z,18.77
2022-08-19T03:08:59.871Z,18.72
2022-08-19T03:11:30.320Z,18.73
2022-08-19T03:13:58.178Z,18.72
2022-08-19T03:16:33.566Z,18.70
2022-08-19T03:19:01.223Z,18.69
2022-08-19T03:21:30.270Z,18.70
2022-08-19T03:23:58.994Z,18.62
2022-08-19T03:26:25.661Z,18.55
2022-08-19T03:28:58.662Z,18.58
2022-08-19T03:31:41.600Z,18.45
2022-08-19T03:34:18.599Z,18.54
2022-08-19T03:36:45.689Z,18.42
2022-08-19T03:39:12.591Z,18.42
2022-08-19T03:41:44.872Z,18.40
2022-08-19T03:44:24.174Z,18.45
2022-08-19T03:46:57.451Z,18.49
2022-08-19T03:49:28.409Z,18.50
2022-08-19T03:51:57.805Z,18.49
2022-08-19T03:54:25.824Z,18.44
2022-08-19T03:56:54.556Z,18.44
2022-08-19T03:59:26.028Z,18.41
2022-08-19T04:01:56.344Z,18.25
2022-08-19T04:04:23.464Z,18.31
2022-08-19T04:06:51.572Z,18.30
2022-08-19T04:09:18.809Z,18.39
2022-08-19T04:11:54.585Z,18.47
2022-08-19T04:14:30.905Z,18.64
2022-08-19T04:16:58.700Z,18.75
2022-08-19T04:19:26.361Z,18.77
2022-08-19T04:21:55.104Z,18.70
2022-08-19T04:24:22.464Z,18.67
2022-08-19T04:26:49.758Z,18.65
2022-08-19T04:29:20.345Z,18.81
2022-08-19T04:31:47.420Z,18.92
2022-08-19T04:34:16.301Z,19.00
2022-08-19T04:36:45.452Z,18.98
2022-08-19T04:39:16.505Z,19.07
2022-08-19T04:42:03.083Z,19.23
2022-08-19T04:44:33.139Z,18.78
2022-08-19T04:47:00.221Z,18.80
2022-08-19T04:49:28.640Z,18.97
2022-08-19T04:51:55.630Z,19.04
2022-08-19T04:54:38.347Z,19.00
2022-08-19T04:57:07.594Z,19.06
2022-08-19T04:59:34.538Z,19.20
2022-08-19T05:02:01.330Z,19.14
2022-08-19T05:04:32.605Z,19.00
2022-08-19T05:07:00.905Z,19.04
2022-08-19T05:09:33.018Z,18.83
2022-08-19T05:12:16.441Z,18.93
2022-08-19T05:14:43.028Z,18.84
2022-08-19T05:17:26.520Z,19.02
2022-08-19T05:20:14.345Z,19.27
2022-08-19T05:22:42.929Z,19.52
2022-08-19T05:25:14.592Z,19.43
2022-08-19T05:27:42.658Z,19.06
2022-08-19T05:30:10.789Z,18.98
2022-08-19T05:32:38.093Z,19.01
2022-08-19T05:35:05.602Z,18.87
2022-08-19T05:37:32.243Z,18.95
2022-08-19T05:39:58.822Z,19.08
2022-08-19T05:42:25.477Z,19.10
2022-08-19T05:44:52.512Z,19.23
2022-08-19T05:47:21.033Z,19.42
2022-08-19T05:49:48.579Z,19.03
2022-08-19T05:52:19.360Z,18.93
2022-08-19T05:54:50.859Z,18.93
2022-08-19T05:57:18.524Z,19.20
2022-08-19T05:59:47.154Z,18.95
2022-08-19T06:02:15.082Z,19.00
2022-08-19T06:04:43.841Z,19.06
2022-08-19T06:07:12.715Z,19.08
2022-08-19T06:09:40.946Z,19.08
2022-08-19T06:12:08.168Z,19.13
2022-08-19T06:14:40.478Z,19.14
2022-08-19T06:17:09.091Z,19.26
2022-08-19T06:19:40.760Z,19.48
2022-08-19T06:22:08.190Z,19.56
2022-08-19T06:24:36.073Z,19.63
2022-08-19T06:27:03.901Z,19.60
2022-08-19T06:29:31.037Z,19.62
2022-08-19T06:32:01.010Z,19.35
2022-08-19T06:34:30.284Z,19.20
2022-08-19T06:37:02.037Z,19.19
2022-08-19T06:39:31.386Z,19.16
2022-08-19T06:42:00.538Z,19.16
2022-08-19T06:44:40.567Z,19.16
2022-08-19T06:47:14.528Z,19.16
2022-08-19T06:49:43.067Z,19.19
2022-08-19T06:52:15.336Z,19.15
2022-08-19T06:54:53.733Z,19.18
2022-08-19T06:57:24.629Z,19.30
2022-08-19T06:59:51.506Z,19.24
2022-08-19T07:04:52.460Z,19.29
2022-08-19T07:07:21.723Z,19.33
2022-08-19T07:09:51.796Z,19.40
2022-08-19T07:12:30.208Z,19.54
2022-08-19T07:14:58.554Z,19.55
2022-08-19T07:17:25.140Z,19.60
2022-08-19T07:19:54.142Z,19.70
2022-08-19T07:22:23.699Z,19.70
2022-08-19T07:24:51.753Z,19.96
2022-08-19T07:27:24.363Z,19.93
2022-08-19T07:29:56.326Z,19.95
2022-08-19T07:32:27.533Z,19.95
2022-08-19T07:34:54.386Z,20.05
2022-08-19T07:37:20.989Z,20.19
2022-08-19T07:39:48.479Z,20.34
2022-08-19T07:42:15.467Z,20.25
2022-08-19T07:44:42.492Z,20.38
2022-08-19T07:47:48.288Z,20.38
2022-08-19T07:50:08.438Z,20.52
2022-08-19T07:52:36.795Z,20.46
2022-08-19T07:55:05.318Z,20.51
2022-08-19T07:57:31.920Z,20.58
2022-08-19T07:59:58.581Z,20.61
2022-08-19T08:02:25.036Z,20.94
2022-08-19T08:05:10.212Z,20.87
2022-08-19T08:07:55.143Z,20.94
2022-08-19T08:10:21.683Z,20.92
2022-08-19T08:13:10.150Z,20.83
2022-08-19T08:15:42.903Z,20.74
2022-08-19T08:18:11.284Z,20.77
2022-08-19T08:20:38.097Z,20.97
2022-08-19T08:23:22.924Z,21.08
2022-08-19T08:25:50.025Z,21.23
2022-08-19T08:28:20.357Z,21.25
2022-08-19T08:30:49.093Z,21.25
2022-08-19T08:33:33.905Z,21.22
2022-08-19T08:36:11.859Z,21.24
2022-08-19T08:38:40.608Z,21.30
2022-08-19T08:41:31.245Z,21.18
2022-08-19T08:43:58.460Z,21.26
2022-08-19T08:46:30.705Z,21.50
2022-08-19T08:49:21.514Z,21.53
2022-08-19T08:51:59.325Z,21.57
2022-08-19T08:54:34.872Z,21.64
2022-08-19T08:57:06.724Z,21.59
2022-08-19T08:59:37.716Z,21.41
2022-08-19T09:02:05.108Z,21.53
2022-08-19T09:04:31.813Z,21.75
2022-08-19T09:07:18.487Z,21.52
2022-08-19T09:10:14.749Z,21.37
2022-08-19T09:13:15.332Z,21.47
2022-08-19T09:15:48.810Z,21.40
2022-08-19T09:18:19.319Z,21.47
2022-08-19T09:20:48.432Z,21.67
2022-08-19T09:23:15.485Z,21.83
2022-08-19T09:25:42.035Z,21.74
2022-08-19T09:28:22.173Z,21.56
2022-08-19T09:30:53.001Z,21.49
2022-08-19T09:33:20.729Z,21.33
2022-08-19T09:35:53.399Z,21.43
2022-08-19T09:38:21.322Z,21.53
2022-08-19T09:40:47.922Z,21.61
2022-08-19T09:43:14.401Z,21.78
2022-08-19T09:45:41.220Z,21.68
2022-08-19T09:48:07.753Z,21.53
2022-08-19T09:50:39.415Z,21.65
2022-08-19T09:53:19.000Z,21.55
2022-08-19T09:55:45.505Z,21.66
2022-08-19T09:58:12.819Z,21.91
2022-08-19T10:00:39.435Z,22.12
2022-08-19T10:03:05.876Z,21.88
2022-08-19T10:05:55.205Z,21.86
2022-08-19T10:08:26.687Z,21.92
2022-08-19T10:10:55.701Z,22.20
2022-08-19T10:13:25.888Z,22.12
2022-08-19T10:15:58.091Z,22.16
2022-08-19T10:18:26.277Z,22.18
2022-08-19T10:20:54.493Z,22.33
2022-08-19T10:23:22.441Z,22.54
2022-08-19T10:25:50.552Z,22.59
2022-08-19T10:28:19.556Z,22.72
2022-08-19T10:30:47.372Z,22.86
2022-08-19T10:33:14.899Z,23.03
2022-08-19T10:35:42.731Z,23.35
2022-08-19T10:38:31.789Z,23.23
2022-08-19T10:41:07.946Z,23.05
2022-08-19T10:43:38.070Z,23.12
2022-08-19T10:46:06.502Z,22.92
2022-08-19T10:48:41.865Z,22.97
2022-08-19T10:51:28.141Z,23.38
2022-08-19T10:53:56.343Z,23.67
2022-08-19T10:56:42.108Z,23.76
2022-08-19T10:59:08.668Z,23.61
2022-08-19T11:01:36.212Z,23.76
2022-08-19T11:04:05.056Z,24.07
2022-08-19T11:06:34.301Z,23.88
2022-08-19T11:09:01.047Z,23.90
2022-08-19T11:11:27.871Z,23.88
2022-08-19T11:13:54.673Z,24.10
2022-08-19T11:16:23.579Z,23.93
2022-08-19T11:18:53.190Z,23.98
2022-08-19T11:21:26.516Z,24.01
2022-08-19T11:23:55.879Z,23.76
2022-08-19T11:26:23.236Z,23.60
2022-08-19T11:28:52.849Z,23.51
2022-08-19T11:31:21.989Z,23.45
2022-08-19T11:33:53.389Z,23.72
2022-08-19T11:36:22.654Z,23.77
2022-08-19T11:38:50.190Z,23.81
2022-08-19T11:41:19.228Z,23.81
2022-08-19T11:43:45.869Z,23.70
2022-08-19T11:46:14.965Z,23.86
2022-08-19T11:48:42.112Z,23.83
2022-08-19T11:51:15.100Z,23.85
2022-08-19T11:53:42.648Z,24.03
2022-08-19T11:56:10.167Z,24.26
2022-08-19T11:58:38.213Z,24.28
2022-08-19T12:01:12.003Z,24.12
2022-08-19T12:03:39.646Z,24.23
2022-08-19T12:06:08.044Z,24.45
2022-08-19T12:08:34.677Z,24.76
2022-08-19T12:11:02.304Z,24.86
2022-08-19T12:13:30.989Z,25.28
2022-08-19T12:15:59.136Z,25.15
2022-08-19T12:18:25.988Z,25.21
2022-08-19T12:20:55.485Z,25.18
2022-08-19T12:23:22.071Z,25.41
2022-08-19T12:25:52.891Z,25.86
2022-08-19T12:28:24.185Z,26.09
2022-08-19T12:30:52.187Z,26.23
2022-08-19T12:33:20.680Z,26.28
2022-08-19T12:35:47.459Z,26.03
2022-08-19T12:38:15.540Z,25.92
2022-08-19T12:40:45.965Z,26.11
2022-08-19T12:43:12.612Z,26.09
2022-08-19T12:45:39.132Z,26.44
2022-08-19T12:48:33.386Z,26.09
2022-08-19T12:50:55.100Z,26.05
2022-08-19T12:53:21.601Z,26.15
2022-08-19T12:55:48.153Z,26.06
2022-08-19T12:58:14.683Z,25.64
2022-08-19T13:00:41.705Z,25.98
2022-08-19T13:03:08.242Z,26.04
2022-08-19T13:05:35.173Z,25.89
2022-08-19T13:08:01.898Z,25.90
2022-08-19T13:10:33.389Z,26.10
2022-08-19T13:13:00.567Z,25.65
2022-08-19T13:15:29.664Z,25.65
2022-08-19T13:17:56.960Z,25.84
2022-08-19T13:20:24.100Z,25.82
2022-08-19T13:22:51.039Z,25.94
2022-08-19T13:25:20.147Z,25.72
2022-08-19T13:27:48.377Z,26.10
2022-08-19T13:30:35.764Z,26.16
2022-08-19T13:33:11.632Z,25.92
2022-08-19T13:35:45.836Z,26.11
2022-08-19T13:38:13.520Z,26.24
2022-08-19T13:40:41.465Z,26.29
2022-08-19T13:43:17.622Z,26.01
2022-08-19T13:45:56.664Z,25.51
2022-08-19T13:48:25.075Z,25.32
2022-08-19T13:50:51.576Z,25.33
2022-08-19T13:53:19.017Z,24.88
2022-08-19T13:55:45.769Z,24.67
2022-08-19T13:58:13.027Z,24.48
2022-08-19T14:00:43.504Z,24.56
2022-08-19T14:03:10.376Z,24.82
2022-08-19T14:05:38.145Z,24.70
2022-08-19T14:08:05.003Z,24.71
2022-08-19T14:10:32.465Z,24.69
2022-08-19T14:13:00.747Z,24.93
2022-08-19T14:15:28.065Z,24.92
2022-08-19T14:17:55.439Z,25.07
2022-08-19T14:20:22.553Z,25.12
2022-08-19T14:22:53.695Z,24.93
2022-08-19T14:25:24.040Z,24.89
2022-08-19T14:27:51.292Z,24.91
2022-08-19T14:30:29.122Z,24.99
2022-08-19T14:32:57.241Z,24.93
2022-08-19T14:35:23.953Z,24.88
2022-08-19T14:37:51.245Z,24.89
2022-08-19T14:40:22.121Z,25.07
2022-08-19T14:42:49.376Z,25.12
2022-08-19T14:45:15.845Z,24.98
2022-08-19T14:47:42.480Z,25.21
2022-08-19T14:50:18.616Z,25.29
2022-08-19T14:52:49.301Z,25.18
2022-08-19T14:55:18.032Z,25.13
2022-08-19T14:57:45.892Z,25.49
2022-08-19T15:00:16.295Z,25.70
2022-08-19T15:02:45.067Z,26.16
2022-08-19T15:05:11.913Z,26.28
2022-08-19T15:07:39.186Z,26.61
2022-08-19T15:10:09.278Z,26.83
2022-08-19T15:12:36.482Z,26.93
2022-08-19T15:15:03.125Z,27.10
2022-08-19T15:17:43.316Z,27.21
2022-08-19T15:20:16.587Z,27.07
2022-08-19T15:22:43.257Z,27.25
2022-08-19T15:25:13.469Z,27.27
2022-08-19T15:27:41.490Z,27.07
2022-08-19T15:30:09.423Z,27.19
2022-08-19T15:32:37.178Z,27.09
2022-08-19T15:35:05.930Z,26.61
2022-08-19T15:37:32.532Z,26.21
2022-08-19T15:40:06.083Z,26.33
2022-08-19T15:42:33.549Z,26.29
2022-08-19T15:45:00.681Z,26.19
2022-08-19T15:47:35.253Z,26.20
2022-08-19T15:50:10.791Z,26.20
2022-08-19T15:52:49.146Z,25.95
2022-08-19T15:55:27.709Z,25.91
2022-08-19T15:58:28.856Z,26.17
2022-08-19T16:01:20.607Z,26.14
2022-08-19T16:04:13.880Z,25.88
2022-08-19T16:06:48.734Z,25.91
2022-08-19T16:09:16.646Z,25.92
2022-08-19T16:11:45.800Z,25.78
2022-08-19T16:14:14.557Z,25.68
2022-08-19T16:16:41.140Z,25.57
2022-08-19T16:19:10.538Z,25.35
2022-08-19T16:21:41.748Z,25.18
2022-08-19T16:24:10.487Z,25.10
2022-08-19T16:26:37.180Z,25.02
2022-08-19T16:29:09.085Z,24.91
2022-08-19T16:31:39.203Z,24.91
2022-08-19T16:34:06.413Z,24.80
2022-08-19T16:36:33.354Z,24.75
2022-08-19T16:39:00.830Z,24.65
2022-08-19T16:41:28.437Z,24.55
2022-08-19T16:43:55.256Z,24.51
2022-08-19T16:46:22.781Z,24.42
2022-08-19T16:48:49.372Z,24.33
2022-08-19T16:51:16.163Z,24.36
2022-08-19T16:53:43.538Z,24.32
2022-08-19T16:56:10.812Z,24.31
2022-08-19T16:58:37.681Z,24.35
2022-08-19T17:01:08.050Z,24.27
2022-08-19T17:03:36.473Z,24.28
2022-08-19T17:06:18.263Z,24.32
2022-08-19T17:08:49.628Z,24.19
2022-08-19T17:11:18.913Z,24.15
2022-08-19T17:13:47.884Z,24.11
2022-08-19T17:16:16.861Z,24.08
2022-08-19T17:18:43.762Z,24.15
2022-08-19T17:21:12.148Z,24.04
2022-08-19T17:23:43.519Z,24.11
2022-08-19T17:26:18.114Z,24.20
2022-08-19T17:28:48.984Z,24.28
2022-08-19T17:31:16.527Z,24.36
2022-08-19T17:33:43.107Z,24.32
2022-08-19T17:36:19.840Z,24.47
2022-08-19T17:38:46.375Z,24.42
2022-08-19T17:41:13.290Z,24.36
2022-08-19T17:43:43.606Z,24.28
2022-08-19T17:46:17.945Z,24.31
2022-08-19T17:48:51.940Z,24.18
2022-08-19T17:51:40.270Z,24.30
2022-08-19T17:54:08.874Z,24.27
2022-08-19T17:56:35.340Z,24.39
2022-08-19T17:59:01.946Z,24.31
2022-08-19T18:01:43.869Z,24.09
2022-08-19T18:04:17.388Z,24.01
2022-08-19T18:06:46.631Z,23.98
2022-08-19T18:09:20.789Z,23.90
2022-08-19T18:11:52.778Z,23.86
2022-08-19T18:14:20.437Z,23.87
2022-08-19T18:16:47.236Z,23.82
2022-08-19T18:19:13.706Z,23.70
2022-08-19T18:21:40.749Z,23.70
2022-08-19T18:24:07.472Z,23.66
2022-08-19T18:26:34.830Z,23.73
2022-08-19T18:29:01.962Z,23.52
2022-08-19T18:31:29.971Z,23.48
2022-08-19T18:33:56.708Z,23.49
2022-08-19T18:36:43.590Z,23.47
2022-08-19T18:39:29.269Z,23.48
2022-08-19T18:42:15.063Z,23.34
2022-08-19T18:45:00.540Z,23.20
2022-08-19T18:47:46.296Z,23.12
2022-08-19T18:50:13.085Z,23.01
2022-08-19T18:52:40.663Z,22.83
2022-08-19T18:55:07.775Z,22.78
2022-08-19T18:57:34.598Z,22.86
2022-08-19T19:00:03.482Z,22.68
2022-08-19T19:02:38.426Z,22.60
2022-08-19T19:05:07.562Z,22.48
2022-08-19T19:07:35.169Z,22.51
2022-08-19T19:10:02.003Z,22.56
2022-08-19T19:12:29.280Z,22.50
2022-08-19T19:14:57.913Z,22.45
2022-08-19T19:17:27.892Z,22.41
2022-08-19T19:19:54.462Z,22.38
2022-08-19T19:22:22.549Z,22.41
2022-08-19T19:24:50.610Z,22.41
2022-08-19T19:27:20.262Z,22.41
2022-08-19T19:29:52.284Z,22.34
2022-08-19T19:32:30.864Z,22.38
2022-08-19T19:34:57.467Z,22.26
2022-08-19T19:37:23.934Z,22.22
2022-08-19T19:39:50.578Z,22.13
2022-08-19T19:42:21.163Z,22.16
2022-08-19T19:44:54.800Z,22.13
2022-08-19T19:47:25.565Z,22.08
2022-08-19T19:50:13.340Z,22.13
2022-08-19T19:52:40.925Z,22.05
2022-08-19T19:55:09.121Z,22.11
2022-08-19T19:57:36.121Z,22.07
2022-08-19T20:00:03.625Z,22.00
2022-08-19T20:02:31.142Z,22.09
2022-08-19T20:04:58.773Z,22.12
2022-08-19T20:07:46.254Z,22.08
2022-08-19T20:10:13.881Z,22.12
2022-08-19T20:12:40.369Z,22.16
2022-08-19T20:15:08.012Z,22.18
2022-08-19T20:17:39.494Z,22.17
2022-08-19T20:20:06.287Z,22.19
2022-08-19T20:22:33.770Z,22.17
2022-08-19T20:25:01.189Z,22.03
2022-08-19T20:29:57.728Z,22.01
2022-08-19T20:32:26.004Z,22.02
2022-08-19T20:34:52.492Z,21.95
2022-08-19T20:37:19.059Z,21.91
2022-08-19T20:39:45.639Z,21.89
2022-08-19T20:42:12.897Z,21.95
2022-08-19T20:44:39.389Z,21.95
2022-08-19T20:47:06.113Z,22.02
2022-08-19T20:51:59.248Z,21.99
2022-08-19T20:54:26.701Z,21.99
2022-08-19T20:56:54.145Z,22.03
2022-08-19T20:59:21.630Z,22.00
2022-08-19T21:01:51.747Z,21.88
2022-08-19T21:04:20.039Z,21.87
2022-08-19T21:06:46.641Z,21.91
2022-08-19T21:09:13.733Z,21.89
2022-08-19T21:11:40.555Z,21.69
2022-08-19T21:14:07.328Z,21.63
2022-08-19T21:16:34.181Z,21.59
2022-08-19T21:19:00.833Z,21.59
2022-08-19T21:21:27.677Z,21.52
2022-08-19T21:23:54.249Z,21.43
2022-08-19T21:26:20.813Z,21.46
2022-08-19T21:28:47.370Z,21.34
2022-08-19T21:31:15.097Z,21.34
2022-08-19T21:33:41.638Z,21.36
2022-08-19T21:36:08.601Z,21.33
2022-08-19T21:38:35.587Z,21.27
2022-08-19T21:41:05.905Z,21.23
2022-08-19T21:43:34.717Z,21.30
2022-08-19T21:46:01.665Z,21.25
2022-08-19T21:48:28.386Z,21.07
2022-08-19T21:50:54.861Z,20.96
2022-08-19T21:53:22.968Z,20.85
2022-08-19T21:55:53.355Z,20.77
2022-08-19T21:58:30.030Z,20.75
2022-08-19T22:00:58.567Z,20.76
2022-08-19T22:03:25.718Z,20.77
2022-08-19T22:05:52.446Z,20.83
2022-08-19T22:08:18.916Z,20.84
2022-08-19T22:10:45.429Z,20.84
2022-08-19T22:13:13.527Z,20.87
2022-08-19T22:15:40.963Z,20.92
2022-08-19T22:18:07.408Z,20.89
2022-08-19T22:20:33.938Z,20.92
2022-08-19T22:23:02.943Z,20.94
2022-08-19T22:25:39.486Z,20.85
2022-08-19T22:28:11.038Z,20.80
2022-08-19T22:30:41.789Z,20.64
2022-08-19T22:33:12.548Z,20.63
2022-08-19T22:35:41.116Z,20.58
2022-08-19T22:38:08.685Z,20.59
2022-08-19T22:40:39.546Z,20.47
2022-08-19T22:43:14.892Z,20.47
2022-08-19T22:45:43.533Z,20.46
2022-08-19T22:48:13.633Z,20.47
2022-08-19T22:50:42.084Z,20.36
2022-08-19T22:53:09.888Z,20.27
2022-08-19T22:55:38.211Z,20.16
2022-08-19T22:58:05.553Z,20.11
2022-08-19T23:00:33.711Z,19.99
2022-08-19T23:03:02.021Z,19.91
2022-08-19T23:05:29.693Z,19.80
2022-08-19T23:07:57.716Z,19.72
2022-08-19T23:10:27.235Z,19.65
2022-08-19T23:12:57.619Z,19.62
2022-08-19T23:15:31.721Z,19.57
2022-08-19T23:18:00.942Z,19.54
2022-08-19T23:20:30.673Z,19.44
2022-08-19T23:22:57.927Z,19.38
2022-08-19T23:25:28.515Z,19.35
2022-08-19T23:28:14.140Z,19.35
2022-08-19T23:30:43.869Z,19.27
2022-08-19T23:33:36.221Z,19.24
2022-08-19T23:36:17.793Z,19.12
2022-08-19T23:38:46.461Z,19.15
2022-08-19T23:41:14.904Z,19.15
2022-08-19T23:43:42.796Z,19.08
2022-08-19T23:46:11.796Z,19.07
2022-08-19T23:48:39.651Z,19.06
2022-08-19T23:51:09.960Z,19.07
2022-08-19T23:53:38.518Z,18.97
2022-08-19T23:56:07.248Z,18.95
2022-08-19T23:58:35.145Z,18.89
